sensor_id;sensor_type;location;lat;lon;timestamp;temperature;humidity
19000;DHT22;9633;50.980;13.850;2022-12-07T00:00:20;3.20;99.90
19000;DHT22;9633;50.980;13.850;2022-12-07T00:01:53;3.20;99.90
19000;DHT22;9633;50.980;13.850;2022-12-07T00:03:28;3.20;99.90
19000;DHT22;9633;50.980;13.850;2022-12-07T00:05:01;3.20;99.90
19000;DHT22;9633;50.980;13.850;2022-12-07T00:06:36;3.20;99.90
19000;DHT22;9633;50.980;13.850;2022-12-07T00:08:09;3.20;99.90
19000;DHT22;9633;50.980;13.850;2022-12-07T00:09:42;3.10;99.90
19000;DHT22;9633;50.980;13.850;2022-12-07T00:11:17;3.00;99.90
19000;DHT22;9633;50.980;13.850;2022-12-07T00:12:50;3.10;99.90
19000;DHT22;9633;50.980;13.850;2022-12-07T00:14:23;3.10;99.90
19000;DHT22;9633;50.980;13.850;2022-12-07T00:16:00;3.10;99.90
19000;DHT22;9633;50.980;13.850;2022-12-07T00:17:33;3.20;99.90
19000;DHT22;9633;50.980;13.850;2022-12-07T00:19:10;3.10;99.90
19000;DHT22;9633;50.980;13.850;2022-12-07T00:20:43;3.10;99.90
19000;DHT22;9633;50.980;13.850;2022-12-07T00:22:16;3.10;99.90
19000;DHT22;9633;50.980;13.850;2022-12-07T00:23:51;3.10;99.90
19000;DHT22;9633;50.980;13.850;2022-12-07T00:25:24;3.10;99.90
19000;DHT22;9633;50.980;13.850;2022-12-07T00:26:58;3.10;99.90
19000;DHT22;9633;50.980;13.850;2022-12-07T00:28:31;3.10;99.90
19000;DHT22;9633;50.980;13.850;2022-12-07T00:30:06;3.10;99.90
19000;DHT22;9633;50.980;13.850;2022-12-07T00:31:39;3.10;99.90
19000;DHT22;9633;50.980;13.850;2022-12-07T00:33:12;3.10;99.90
19000;DHT22;9633;50.980;13.850;2022-12-07T00:34:47;3.10;99.90
19000;DHT22;9633;50.980;13.850;2022-12-07T00:36:22;3.10;99.90
19000;DHT22;9633;50.980;13.850;2022-12-07T00:37:58;3.10;99.90
19000;DHT22;9633;50.980;13.850;2022-12-07T00:39:31;3.10;99.90
19000;DHT22;9633;50.980;13.850;2022-12-07T00:41:06;3.10;99.90
19000;DHT22;9633;50.980;13.850;2022-12-07T00:42:39;3.10;99.90
19000;DHT22;9633;50.980;13.850;2022-12-07T00:44:12;3.10;99.90
19000;DHT22;9633;50.980;13.850;2022-12-07T00:45:45;3.10;99.90
19000;DHT22;9633;50.980;13.850;2022-12-07T00:47:19;3.10;99.90
19000;DHT22;9633;50.980;13.850;2022-12-07T00:48:53;3.10;99.90
19000;DHT22;9633;50.980;13.850;2022-12-07T00:50:27;3.10;99.90
19000;DHT22;9633;50.980;13.850;2022-12-07T00:52:00;3.10;99.90
19000;DHT22;9633;50.980;13.850;2022-12-07T00:53:34;3.10;99.90
19000;DHT22;9633;50.980;13.850;2022-12-07T00:55:12;3.10;99.90
19000;DHT22;9633;50.980;13.850;2022-12-07T00:56:45;3.00;99.90
19000;DHT22;9633;50.980;13.850;2022-12-07T00:58:18;2.90;99.90
19000;DHT22;9633;50.980;13.850;2022-12-07T00:59:52;3.00;99.90
19000;DHT22;9633;50.980;13.850;2022-12-07T01:01:29;3.00;99.90
19000;DHT22;9633;50.980;13.850;2022-12-07T01:03:03;3.00;99.90
19000;DHT22;9633;50.980;13.850;2022-12-07T01:04:35;3.00;99.90
19000;DHT22;9633;50.980;13.850;2022-12-07T01:06:09;3.00;99.90
19000;DHT22;9633;50.980;13.850;2022-12-07T01:07:46;3.10;99.90
19000;DHT22;9633;50.980;13.850;2022-12-07T01:09:18;3.10;99.90
19000;DHT22;9633;50.980;13.850;2022-12-07T01:10:59;3.00;99.90
19000;DHT22;9633;50.980;13.850;2022-12-07T01:12:31;3.00;99.90
19000;DHT22;9633;50.980;13.850;2022-12-07T01:14:04;3.10;99.90
19000;DHT22;9633;50.980;13.850;2022-12-07T01:15:39;3.10;99.90
19000;DHT22;9633;50.980;13.850;2022-12-07T01:17:12;3.10;99.90
19000;DHT22;9633;50.980;13.850;2022-12-07T01:18:47;3.40;99.90
19000;DHT22;9633;50.980;13.850;2022-12-07T01:20:20;3.20;99.90
19000;DHT22;9633;50.980;13.850;2022-12-07T01:21:55;3.10;99.90
19000;DHT22;9633;50.980;13.850;2022-12-07T01:23:28;3.10;99.90
19000;DHT22;9633;50.980;13.850;2022-12-07T01:25:01;3.10;99.90
19000;DHT22;9633;50.980;13.850;2022-12-07T01:26:34;3.10;99.90
19000;DHT22;9633;50.980;13.850;2022-12-07T01:28:07;3.10;99.90
19000;DHT22;9633;50.980;13.850;2022-12-07T01:29:41;3.20;99.90
19000;DHT22;9633;50.980;13.850;2022-12-07T01:31:17;3.10;99.90
19000;DHT22;9633;50.980;13.850;2022-12-07T01:32:50;3.10;99.90
19000;DHT22;9633;50.980;13.850;2022-12-07T01:34:23;3.10;99.90
19000;DHT22;9633;50.980;13.850;2022-12-07T01:36:01;3.20;99.90
19000;DHT22;9633;50.980;13.850;2022-12-07T01:37:37;3.20;99.90
19000;DHT22;9633;50.980;13.850;2022-12-07T01:39:10;3.20;99.90
19000;DHT22;9633;50.980;13.850;2022-12-07T01:40:44;3.10;99.90
19000;DHT22;9633;50.980;13.850;2022-12-07T01:42:17;3.10;99.90
19000;DHT22;9633;50.980;13.850;2022-12-07T01:44:10;3.20;99.90
19000;DHT22;9633;50.980;13.850;2022-12-07T01:45:44;3.20;99.90
19000;DHT22;9633;50.980;13.850;2022-12-07T01:47:17;3.20;99.90
19000;DHT22;9633;50.980;13.850;2022-12-07T01:48:50;3.20;99.90
19000;DHT22;9633;50.980;13.850;2022-12-07T01:50:26;3.20;99.90
19000;DHT22;9633;50.980;13.850;2022-12-07T01:52:13;3.20;99.90
19000;DHT22;9633;50.980;13.850;2022-12-07T01:53:48;3.20;99.90
19000;DHT22;9633;50.980;13.850;2022-12-07T01:55:20;3.20;99.90
19000;DHT22;9633;50.980;13.850;2022-12-07T01:56:54;3.30;99.90
19000;DHT22;9633;50.980;13.850;2022-12-07T01:58:29;3.20;99.90
19000;DHT22;9633;50.980;13.850;2022-12-07T02:00:04;3.20;99.90
19000;DHT22;9633;50.980;13.850;2022-12-07T02:01:46;3.10;99.90
19000;DHT22;9633;50.980;13.850;2022-12-07T02:03:22;3.00;99.90
19000;DHT22;9633;50.980;13.850;2022-12-07T02:04:57;3.10;99.90
19000;DHT22;9633;50.980;13.850;2022-12-07T02:06:31;2.90;99.90
19000;DHT22;9633;50.980;13.850;2022-12-07T02:08:04;3.00;99.90
19000;DHT22;9633;50.980;13.850;2022-12-07T02:09:38;3.00;99.90
19000;DHT22;9633;50.980;13.850;2022-12-07T02:11:11;2.90;99.90
19000;DHT22;9633;50.980;13.850;2022-12-07T02:12:47;2.90;99.90
19000;DHT22;9633;50.980;13.850;2022-12-07T02:14:21;2.90;99.90
19000;DHT22;9633;50.980;13.850;2022-12-07T02:16:11;2.90;99.90
19000;DHT22;9633;50.980;13.850;2022-12-07T02:17:53;2.90;99.90
19000;DHT22;9633;50.980;13.850;2022-12-07T02:20:05;2.90;99.90
19000;DHT22;9633;50.980;13.850;2022-12-07T02:21:45;2.90;99.90
19000;DHT22;9633;50.980;13.850;2022-12-07T02:23:39;2.90;99.90
19000;DHT22;9633;50.980;13.850;2022-12-07T02:25:22;2.80;99.90
19000;DHT22;9633;50.980;13.850;2022-12-07T02:27:09;2.80;99.90
19000;DHT22;9633;50.980;13.850;2022-12-07T02:29:01;2.70;99.90
19000;DHT22;9633;50.980;13.850;2022-12-07T02:30:42;2.60;99.90
19000;DHT22;9633;50.980;13.850;2022-12-07T02:32:21;2.60;99.90
19000;DHT22;9633;50.980;13.850;2022-12-07T02:34:03;2.60;99.90
19000;DHT22;9633;50.980;13.850;2022-12-07T02:35:41;2.60;99.90
19000;DHT22;9633;50.980;13.850;2022-12-07T02:37:23;2.50;99.90
19000;DHT22;9633;50.980;13.850;2022-12-07T02:39:00;2.50;99.90
19000;DHT22;9633;50.980;13.850;2022-12-07T02:40:38;2.40;99.90
19000;DHT22;9633;50.980;13.850;2022-12-07T02:42:16;2.30;99.90
19000;DHT22;9633;50.980;13.850;2022-12-07T02:43:52;2.30;99.90
19000;DHT22;9633;50.980;13.850;2022-12-07T02:45:29;2.30;99.90
19000;DHT22;9633;50.980;13.850;2022-12-07T02:47:07;2.20;99.90
19000;DHT22;9633;50.980;13.850;2022-12-07T02:48:43;2.30;99.90
19000;DHT22;9633;50.980;13.850;2022-12-07T02:50:18;2.30;99.90
19000;DHT22;9633;50.980;13.850;2022-12-07T02:51:52;2.20;99.90
19000;DHT22;9633;50.980;13.850;2022-12-07T02:53:29;2.30;99.90
19000;DHT22;9633;50.980;13.850;2022-12-07T02:55:04;2.30;99.90
19000;DHT22;9633;50.980;13.850;2022-12-07T02:56:42;2.30;99.90
19000;DHT22;9633;50.980;13.850;2022-12-07T02:58:26;2.40;99.90
19000;DHT22;9633;50.980;13.850;2022-12-07T03:00:07;2.20;99.90
19000;DHT22;9633;50.980;13.850;2022-12-07T03:01:50;2.20;99.90
19000;DHT22;9633;50.980;13.850;2022-12-07T03:03:24;2.30;99.90
19000;DHT22;9633;50.980;13.850;2022-12-07T03:05:11;2.30;99.90
19000;DHT22;9633;50.980;13.850;2022-12-07T03:06:50;2.30;99.90
19000;DHT22;9633;50.980;13.850;2022-12-07T03:08:30;2.40;99.90
19000;DHT22;9633;50.980;13.850;2022-12-07T03:10:11;2.40;99.90
19000;DHT22;9633;50.980;13.850;2022-12-07T03:11:49;2.40;99.90
19000;DHT22;9633;50.980;13.850;2022-12-07T03:13:28;2.50;99.90
19000;DHT22;9633;50.980;13.850;2022-12-07T03:15:09;2.50;99.90
19000;DHT22;9633;50.980;13.850;2022-12-07T03:16:46;2.50;99.90
19000;DHT22;9633;50.980;13.850;2022-12-07T03:18:22;2.40;99.90
19000;DHT22;9633;50.980;13.850;2022-12-07T03:19:58;2.40;99.90
19000;DHT22;9633;50.980;13.850;2022-12-07T03:21:38;2.40;99.90
19000;DHT22;9633;50.980;13.850;2022-12-07T03:23:12;2.50;99.90
19000;DHT22;9633;50.980;13.850;2022-12-07T03:24:50;2.50;99.90
19000;DHT22;9633;50.980;13.850;2022-12-07T03:26:31;2.40;99.90
19000;DHT22;9633;50.980;13.850;2022-12-07T03:28:06;2.40;99.90
19000;DHT22;9633;50.980;13.850;2022-12-07T03:29:43;2.40;99.90
19000;DHT22;9633;50.980;13.850;2022-12-07T03:31:21;2.40;99.90
19000;DHT22;9633;50.980;13.850;2022-12-07T03:32:59;2.40;99.90
19000;DHT22;9633;50.980;13.850;2022-12-07T03:34:38;2.30;99.90
19000;DHT22;9633;50.980;13.850;2022-12-07T03:36:17;2.30;99.90
19000;DHT22;9633;50.980;13.850;2022-12-07T03:37:55;2.30;99.90
19000;DHT22;9633;50.980;13.850;2022-12-07T03:39:34;2.20;99.90
19000;DHT22;9633;50.980;13.850;2022-12-07T03:41:13;2.20;99.90
19000;DHT22;9633;50.980;13.850;2022-12-07T03:42:50;2.20;99.90
19000;DHT22;9633;50.980;13.850;2022-12-07T03:44:24;2.20;99.90
19000;DHT22;9633;50.980;13.850;2022-12-07T03:46:03;2.20;99.90
19000;DHT22;9633;50.980;13.850;2022-12-07T03:47:46;2.10;99.90
19000;DHT22;9633;50.980;13.850;2022-12-07T03:49:24;2.10;99.90
19000;DHT22;9633;50.980;13.850;2022-12-07T03:51:04;2.00;99.90
19000;DHT22;9633;50.980;13.850;2022-12-07T03:52:40;2.00;99.90
19000;DHT22;9633;50.980;13.850;2022-12-07T03:54:18;1.90;99.90
19000;DHT22;9633;50.980;13.850;2022-12-07T03:55:53;1.90;99.90
19000;DHT22;9633;50.980;13.850;2022-12-07T03:57:28;1.80;99.90
19000;DHT22;9633;50.980;13.850;2022-12-07T03:59:01;1.80;99.90
19000;DHT22;9633;50.980;13.850;2022-12-07T04:00:34;1.70;99.90
19000;DHT22;9633;50.980;13.850;2022-12-07T04:02:08;1.70;99.90
19000;DHT22;9633;50.980;13.850;2022-12-07T04:03:45;1.70;99.90
19000;DHT22;9633;50.980;13.850;2022-12-07T04:05:18;1.60;99.90
19000;DHT22;9633;50.980;13.850;2022-12-07T04:06:52;1.60;99.90
19000;DHT22;9633;50.980;13.850;2022-12-07T04:08:25;1.60;99.90
19000;DHT22;9633;50.980;13.850;2022-12-07T04:09:58;1.50;99.90
19000;DHT22;9633;50.980;13.850;2022-12-07T04:11:32;1.50;99.90
19000;DHT22;9633;50.980;13.850;2022-12-07T04:13:05;1.50;99.90
19000;DHT22;9633;50.980;13.850;2022-12-07T04:14:38;1.50;99.90
19000;DHT22;9633;50.980;13.850;2022-12-07T04:16:10;1.50;99.90
19000;DHT22;9633;50.980;13.850;2022-12-07T04:17:43;1.50;99.90
19000;DHT22;9633;50.980;13.850;2022-12-07T04:19:18;1.50;99.90
19000;DHT22;9633;50.980;13.850;2022-12-07T04:20:52;1.50;99.90
19000;DHT22;9633;50.980;13.850;2022-12-07T04:22:25;1.60;99.90
19000;DHT22;9633;50.980;13.850;2022-12-07T04:23:58;1.60;99.90
19000;DHT22;9633;50.980;13.850;2022-12-07T04:25:31;1.50;99.90
19000;DHT22;9633;50.980;13.850;2022-12-07T04:27:04;1.50;99.90
19000;DHT22;9633;50.980;13.850;2022-12-07T04:28:37;1.70;99.90
19000;DHT22;9633;50.980;13.850;2022-12-07T04:30:11;1.70;99.90
19000;DHT22;9633;50.980;13.850;2022-12-07T04:31:44;1.70;99.90
19000;DHT22;9633;50.980;13.850;2022-12-07T04:33:18;1.80;99.90
19000;DHT22;9633;50.980;13.850;2022-12-07T04:34:52;1.80;99.90
19000;DHT22;9633;50.980;13.850;2022-12-07T04:36:27;1.70;99.90
19000;DHT22;9633;50.980;13.850;2022-12-07T04:38:00;1.70;99.90
19000;DHT22;9633;50.980;13.850;2022-12-07T04:39:33;1.70;99.90
19000;DHT22;9633;50.980;13.850;2022-12-07T04:41:07;1.70;99.90
19000;DHT22;9633;50.980;13.850;2022-12-07T04:42:41;1.70;99.90
19000;DHT22;9633;50.980;13.850;2022-12-07T04:44:15;1.70;99.90
19000;DHT22;9633;50.980;13.850;2022-12-07T04:45:48;1.50;99.90
19000;DHT22;9633;50.980;13.850;2022-12-07T04:47:20;1.40;99.90
19000;DHT22;9633;50.980;13.850;2022-12-07T04:48:54;1.30;99.90
19000;DHT22;9633;50.980;13.850;2022-12-07T04:50:28;1.30;99.90
19000;DHT22;9633;50.980;13.850;2022-12-07T04:52:01;1.20;99.90
19000;DHT22;9633;50.980;13.850;2022-12-07T04:53:34;1.00;99.90
19000;DHT22;9633;50.980;13.850;2022-12-07T04:55:07;0.90;99.90
19000;DHT22;9633;50.980;13.850;2022-12-07T04:56:40;0.80;99.90
19000;DHT22;9633;50.980;13.850;2022-12-07T04:58:14;0.90;99.90
19000;DHT22;9633;50.980;13.850;2022-12-07T04:59:47;0.80;99.90
19000;DHT22;9633;50.980;13.850;2022-12-07T05:01:20;0.70;99.90
19000;DHT22;9633;50.980;13.850;2022-12-07T05:02:53;0.80;99.90
19000;DHT22;9633;50.980;13.850;2022-12-07T05:04:26;0.80;99.90
19000;DHT22;9633;50.980;13.850;2022-12-07T05:06:00;0.70;99.90
19000;DHT22;9633;50.980;13.850;2022-12-07T05:07:33;0.70;99.90
19000;DHT22;9633;50.980;13.850;2022-12-07T05:09:07;0.70;99.90
19000;DHT22;9633;50.980;13.850;2022-12-07T05:10:40;0.60;99.90
19000;DHT22;9633;50.980;13.850;2022-12-07T05:12:13;0.50;99.90
19000;DHT22;9633;50.980;13.850;2022-12-07T05:13:46;0.50;99.90
19000;DHT22;9633;50.980;13.850;2022-12-07T05:15:19;0.40;99.90
19000;DHT22;9633;50.980;13.850;2022-12-07T05:16:52;0.20;99.90
19000;DHT22;9633;50.980;13.850;2022-12-07T05:18:26;0.10;99.90
19000;DHT22;9633;50.980;13.850;2022-12-07T05:19:58;0.10;99.90
19000;DHT22;9633;50.980;13.850;2022-12-07T05:21:33;0.10;99.90
19000;DHT22;9633;50.980;13.850;2022-12-07T05:23:06;0.00;99.90
19000;DHT22;9633;50.980;13.850;2022-12-07T05:24:39;-0.10;99.90
19000;DHT22;9633;50.980;13.850;2022-12-07T05:26:12;-0.20;99.90
19000;DHT22;9633;50.980;13.850;2022-12-07T05:27:45;-0.20;99.90
19000;DHT22;9633;50.980;13.850;2022-12-07T05:29:19;-0.20;99.90
19000;DHT22;9633;50.980;13.850;2022-12-07T05:30:52;-0.20;99.90
19000;DHT22;9633;50.980;13.850;2022-12-07T05:32:30;-0.20;99.90
19000;DHT22;9633;50.980;13.850;2022-12-07T05:34:03;-0.20;99.90
19000;DHT22;9633;50.980;13.850;2022-12-07T05:35:36;-0.20;99.90
19000;DHT22;9633;50.980;13.850;2022-12-07T05:37:11;-0.20;99.90
19000;DHT22;9633;50.980;13.850;2022-12-07T05:38:45;-0.20;99.90
19000;DHT22;9633;50.980;13.850;2022-12-07T05:40:17;-0.30;99.90
19000;DHT22;9633;50.980;13.850;2022-12-07T05:41:51;-0.30;99.90
19000;DHT22;9633;50.980;13.850;2022-12-07T05:43:53;-0.30;99.90
19000;DHT22;9633;50.980;13.850;2022-12-07T05:45:26;-0.30;99.90
19000;DHT22;9633;50.980;13.850;2022-12-07T05:46:59;-0.20;99.90
19000;DHT22;9633;50.980;13.850;2022-12-07T05:48:32;-0.10;99.90
19000;DHT22;9633;50.980;13.850;2022-12-07T05:50:06;0.00;99.90
19000;DHT22;9633;50.980;13.850;2022-12-07T05:51:39;0.00;99.90
19000;DHT22;9633;50.980;13.850;2022-12-07T05:53:14;0.10;99.90
19000;DHT22;9633;50.980;13.850;2022-12-07T05:54:53;0.10;99.90
19000;DHT22;9633;50.980;13.850;2022-12-07T05:56:26;0.10;99.90
19000;DHT22;9633;50.980;13.850;2022-12-07T05:57:59;0.20;99.90
19000;DHT22;9633;50.980;13.850;2022-12-07T05:59:50;0.20;99.90
19000;DHT22;9633;50.980;13.850;2022-12-07T06:01:23;0.40;99.90
19000;DHT22;9633;50.980;13.850;2022-12-07T06:02:55;0.40;99.90
19000;DHT22;9633;50.980;13.850;2022-12-07T06:04:30;0.40;99.90
19000;DHT22;9633;50.980;13.850;2022-12-07T06:06:03;0.50;99.90
19000;DHT22;9633;50.980;13.850;2022-12-07T06:07:35;0.50;99.90
19000;DHT22;9633;50.980;13.850;2022-12-07T06:09:10;0.60;99.90
19000;DHT22;9633;50.980;13.850;2022-12-07T06:10:44;0.60;99.90
19000;DHT22;9633;50.980;13.850;2022-12-07T06:12:39;0.60;99.90
19000;DHT22;9633;50.980;13.850;2022-12-07T06:14:14;0.70;99.90
19000;DHT22;9633;50.980;13.850;2022-12-07T06:15:47;0.80;99.90
19000;DHT22;9633;50.980;13.850;2022-12-07T06:17:20;0.90;99.90
19000;DHT22;9633;50.980;13.850;2022-12-07T06:18:53;1.10;99.90
19000;DHT22;9633;50.980;13.850;2022-12-07T06:20:26;1.20;99.90
19000;DHT22;9633;50.980;13.850;2022-12-07T06:21:59;1.40;99.90
19000;DHT22;9633;50.980;13.850;2022-12-07T06:23:32;1.50;99.90
19000;DHT22;9633;50.980;13.850;2022-12-07T06:25:07;1.60;99.90
19000;DHT22;9633;50.980;13.850;2022-12-07T06:26:41;1.60;99.90
19000;DHT22;9633;50.980;13.850;2022-12-07T06:28:14;1.70;99.90
19000;DHT22;9633;50.980;13.850;2022-12-07T06:29:47;1.80;99.90
19000;DHT22;9633;50.980;13.850;2022-12-07T06:31:21;1.90;99.90
19000;DHT22;9633;50.980;13.850;2022-12-07T06:32:53;1.90;99.90
19000;DHT22;9633;50.980;13.850;2022-12-07T06:34:26;2.00;99.90
19000;DHT22;9633;50.980;13.850;2022-12-07T06:36:00;2.00;99.90
19000;DHT22;9633;50.980;13.850;2022-12-07T06:37:33;2.00;99.90
19000;DHT22;9633;50.980;13.850;2022-12-07T06:39:07;2.20;99.90
19000;DHT22;9633;50.980;13.850;2022-12-07T06:40:42;2.30;99.90
19000;DHT22;9633;50.980;13.850;2022-12-07T06:42:15;2.20;99.90
19000;DHT22;9633;50.980;13.850;2022-12-07T06:43:48;2.20;99.90
19000;DHT22;9633;50.980;13.850;2022-12-07T06:45:27;2.20;99.90
19000;DHT22;9633;50.980;13.850;2022-12-07T06:47:00;2.20;99.90
19000;DHT22;9633;50.980;13.850;2022-12-07T06:48:53;2.20;99.90
19000;DHT22;9633;50.980;13.850;2022-12-07T06:50:26;2.20;99.90
19000;DHT22;9633;50.980;13.850;2022-12-07T06:51:59;2.10;99.90
19000;DHT22;9633;50.980;13.850;2022-12-07T06:53:33;2.10;99.90
19000;DHT22;9633;50.980;13.850;2022-12-07T06:55:07;2.10;99.90
19000;DHT22;9633;50.980;13.850;2022-12-07T06:56:41;2.10;99.90
19000;DHT22;9633;50.980;13.850;2022-12-07T06:58:15;2.10;99.90
19000;DHT22;9633;50.980;13.850;2022-12-07T06:59:47;2.20;99.90
19000;DHT22;9633;50.980;13.850;2022-12-07T07:01:20;2.20;99.90
19000;DHT22;9633;50.980;13.850;2022-12-07T07:02:53;2.30;99.90
19000;DHT22;9633;50.980;13.850;2022-12-07T07:04:26;2.30;99.90
19000;DHT22;9633;50.980;13.850;2022-12-07T07:06:00;2.30;99.90
19000;DHT22;9633;50.980;13.850;2022-12-07T07:07:33;2.40;99.90
19000;DHT22;9633;50.980;13.850;2022-12-07T07:09:26;2.50;99.90
19000;DHT22;9633;50.980;13.850;2022-12-07T07:10:59;2.50;99.90
19000;DHT22;9633;50.980;13.850;2022-12-07T07:12:33;2.70;99.90
19000;DHT22;9633;50.980;13.850;2022-12-07T07:14:06;2.70;99.90
19000;DHT22;9633;50.980;13.850;2022-12-07T07:15:40;2.70;99.90
19000;DHT22;9633;50.980;13.850;2022-12-07T07:17:13;2.70;99.90
19000;DHT22;9633;50.980;13.850;2022-12-07T07:18:46;2.80;99.90
19000;DHT22;9633;50.980;13.850;2022-12-07T07:20:19;2.80;99.90
19000;DHT22;9633;50.980;13.850;2022-12-07T07:21:52;2.80;99.90
19000;DHT22;9633;50.980;13.850;2022-12-07T07:23:25;2.80;99.90
19000;DHT22;9633;50.980;13.850;2022-12-07T07:24:58;2.90;99.90
19000;DHT22;9633;50.980;13.850;2022-12-07T07:26:31;2.90;99.90
19000;DHT22;9633;50.980;13.850;2022-12-07T07:28:06;2.90;99.90
19000;DHT22;9633;50.980;13.850;2022-12-07T07:29:39;2.90;99.90
19000;DHT22;9633;50.980;13.850;2022-12-07T07:31:12;2.80;99.90
19000;DHT22;9633;50.980;13.850;2022-12-07T07:32:45;2.70;99.90
19000;DHT22;9633;50.980;13.850;2022-12-07T07:34:18;2.70;99.90
19000;DHT22;9633;50.980;13.850;2022-12-07T07:35:52;2.60;99.90
19000;DHT22;9633;50.980;13.850;2022-12-07T07:37:25;2.60;99.90
19000;DHT22;9633;50.980;13.850;2022-12-07T07:38:58;2.60;99.90
19000;DHT22;9633;50.980;13.850;2022-12-07T07:40:31;2.50;99.90
19000;DHT22;9633;50.980;13.850;2022-12-07T07:42:05;2.50;99.90
19000;DHT22;9633;50.980;13.850;2022-12-07T07:43:40;2.50;99.90
19000;DHT22;9633;50.980;13.850;2022-12-07T07:45:13;2.50;99.90
19000;DHT22;9633;50.980;13.850;2022-12-07T07:46:46;2.40;99.90
19000;DHT22;9633;50.980;13.850;2022-12-07T07:48:19;2.40;99.90
19000;DHT22;9633;50.980;13.850;2022-12-07T07:49:54;2.40;99.90
19000;DHT22;9633;50.980;13.850;2022-12-07T07:51:27;2.50;99.90
19000;DHT22;9633;50.980;13.850;2022-12-07T07:53:00;2.50;99.90
19000;DHT22;9633;50.980;13.850;2022-12-07T07:54:33;2.50;99.90
19000;DHT22;9633;50.980;13.850;2022-12-07T07:56:07;2.60;99.90
19000;DHT22;9633;50.980;13.850;2022-12-07T07:57:41;2.70;99.90
19000;DHT22;9633;50.980;13.850;2022-12-07T07:59:19;2.70;99.90
19000;DHT22;9633;50.980;13.850;2022-12-07T08:00:52;2.80;99.90
19000;DHT22;9633;50.980;13.850;2022-12-07T08:02:26;2.90;99.90
19000;DHT22;9633;50.980;13.850;2022-12-07T08:04:01;2.90;99.90
19000;DHT22;9633;50.980;13.850;2022-12-07T08:05:34;3.00;99.90
19000;DHT22;9633;50.980;13.850;2022-12-07T08:07:09;3.10;99.90
19000;DHT22;9633;50.980;13.850;2022-12-07T08:08:42;3.00;99.90
19000;DHT22;9633;50.980;13.850;2022-12-07T08:10:16;3.10;99.90
19000;DHT22;9633;50.980;13.850;2022-12-07T08:11:49;3.10;99.90
19000;DHT22;9633;50.980;13.850;2022-12-07T08:13:22;3.10;99.90
19000;DHT22;9633;50.980;13.850;2022-12-07T08:15:03;3.10;99.90
19000;DHT22;9633;50.980;13.850;2022-12-07T08:16:37;3.20;99.90
19000;DHT22;9633;50.980;13.850;2022-12-07T08:18:11;3.20;99.90
19000;DHT22;9633;50.980;13.850;2022-12-07T08:19:44;3.20;99.90
19000;DHT22;9633;50.980;13.850;2022-12-07T08:21:17;3.30;99.90
19000;DHT22;9633;50.980;13.850;2022-12-07T08:22:50;3.30;99.90
19000;DHT22;9633;50.980;13.850;2022-12-07T08:24:24;3.30;99.90
19000;DHT22;9633;50.980;13.850;2022-12-07T08:26:00;3.40;99.90
19000;DHT22;9633;50.980;13.850;2022-12-07T08:27:33;3.40;99.90
19000;DHT22;9633;50.980;13.850;2022-12-07T08:29:06;3.50;99.90
19000;DHT22;9633;50.980;13.850;2022-12-07T08:30:40;3.60;99.90
19000;DHT22;9633;50.980;13.850;2022-12-07T08:32:14;3.60;99.90
19000;DHT22;9633;50.980;13.850;2022-12-07T08:33:47;3.60;99.90
19000;DHT22;9633;50.980;13.850;2022-12-07T08:35:20;3.60;99.90
19000;DHT22;9633;50.980;13.850;2022-12-07T08:36:53;3.70;99.90
19000;DHT22;9633;50.980;13.850;2022-12-07T08:38:26;3.80;99.90
19000;DHT22;9633;50.980;13.850;2022-12-07T08:40:04;3.80;99.90
19000;DHT22;9633;50.980;13.850;2022-12-07T08:41:37;3.90;99.90
19000;DHT22;9633;50.980;13.850;2022-12-07T08:43:10;3.90;99.90
19000;DHT22;9633;50.980;13.850;2022-12-07T08:44:44;3.90;99.90
19000;DHT22;9633;50.980;13.850;2022-12-07T08:46:21;4.00;99.90
19000;DHT22;9633;50.980;13.850;2022-12-07T08:47:58;4.00;99.90
19000;DHT22;9633;50.980;13.850;2022-12-07T08:49:38;4.00;99.90
19000;DHT22;9633;50.980;13.850;2022-12-07T08:51:12;4.00;99.90
19000;DHT22;9633;50.980;13.850;2022-12-07T08:52:48;4.10;99.90
19000;DHT22;9633;50.980;13.850;2022-12-07T08:54:23;4.20;99.90
19000;DHT22;9633;50.980;13.850;2022-12-07T08:55:57;4.30;99.90
19000;DHT22;9633;50.980;13.850;2022-12-07T08:57:32;4.40;99.90
19000;DHT22;9633;50.980;13.850;2022-12-07T08:59:07;4.70;99.90
19000;DHT22;9633;50.980;13.850;2022-12-07T09:00:40;4.70;99.90
19000;DHT22;9633;50.980;13.850;2022-12-07T09:02:16;4.80;99.90
19000;DHT22;9633;50.980;13.850;2022-12-07T09:03:49;4.90;99.90
19000;DHT22;9633;50.980;13.850;2022-12-07T09:05:22;4.90;99.90
19000;DHT22;9633;50.980;13.850;2022-12-07T09:06:55;4.90;99.90
19000;DHT22;9633;50.980;13.850;2022-12-07T09:08:31;4.70;99.90
19000;DHT22;9633;50.980;13.850;2022-12-07T09:10:06;4.60;99.90
19000;DHT22;9633;50.980;13.850;2022-12-07T09:11:39;4.40;99.90
19000;DHT22;9633;50.980;13.850;2022-12-07T09:13:13;4.40;99.90
19000;DHT22;9633;50.980;13.850;2022-12-07T09:14:46;4.50;99.90
19000;DHT22;9633;50.980;13.850;2022-12-07T09:16:19;4.50;99.90
19000;DHT22;9633;50.980;13.850;2022-12-07T09:17:54;4.60;99.90
19000;DHT22;9633;50.980;13.850;2022-12-07T09:19:27;4.70;99.90
19000;DHT22;9633;50.980;13.850;2022-12-07T09:21:00;4.80;99.90
19000;DHT22;9633;50.980;13.850;2022-12-07T09:22:33;4.80;99.90
19000;DHT22;9633;50.980;13.850;2022-12-07T09:24:07;5.20;99.90
19000;DHT22;9633;50.980;13.850;2022-12-07T09:25:41;5.90;99.90
19000;DHT22;9633;50.980;13.850;2022-12-07T09:27:14;6.20;99.90
19000;DHT22;9633;50.980;13.850;2022-12-07T09:28:49;5.60;99.90
19000;DHT22;9633;50.980;13.850;2022-12-07T09:30:22;5.30;99.90
19000;DHT22;9633;50.980;13.850;2022-12-07T09:31:55;5.10;99.90
19000;DHT22;9633;50.980;13.850;2022-12-07T09:33:30;5.00;99.90
19000;DHT22;9633;50.980;13.850;2022-12-07T09:35:04;4.90;99.90
19000;DHT22;9633;50.980;13.850;2022-12-07T09:36:37;4.90;99.90
19000;DHT22;9633;50.980;13.850;2022-12-07T09:38:10;4.80;99.90
19000;DHT22;9633;50.980;13.850;2022-12-07T09:39:43;4.80;99.90
19000;DHT22;9633;50.980;13.850;2022-12-07T09:41:22;4.80;99.90
19000;DHT22;9633;50.980;13.850;2022-12-07T09:42:56;4.80;99.90
19000;DHT22;9633;50.980;13.850;2022-12-07T09:44:29;4.90;99.90
19000;DHT22;9633;50.980;13.850;2022-12-07T09:46:03;4.90;99.90
19000;DHT22;9633;50.980;13.850;2022-12-07T09:47:36;5.00;99.90
19000;DHT22;9633;50.980;13.850;2022-12-07T09:49:13;5.10;99.90
19000;DHT22;9633;50.980;13.850;2022-12-07T09:50:48;5.20;99.90
19000;DHT22;9633;50.980;13.850;2022-12-07T09:52:26;5.30;99.90
19000;DHT22;9633;50.980;13.850;2022-12-07T09:54:07;5.20;99.90
19000;DHT22;9633;50.980;13.850;2022-12-07T09:55:44;5.10;99.90
19000;DHT22;9633;50.980;13.850;2022-12-07T09:57:18;5.00;99.90
19000;DHT22;9633;50.980;13.850;2022-12-07T09:58:54;5.00;99.90
19000;DHT22;9633;50.980;13.850;2022-12-07T10:00:30;5.10;99.90
19000;DHT22;9633;50.980;13.850;2022-12-07T10:02:23;5.20;99.90
19000;DHT22;9633;50.980;13.850;2022-12-07T10:04:06;5.00;99.90
19000;DHT22;9633;50.980;13.850;2022-12-07T10:05:46;5.00;99.90
19000;DHT22;9633;50.980;13.850;2022-12-07T10:07:20;5.10;99.90
19000;DHT22;9633;50.980;13.850;2022-12-07T10:08:53;5.10;99.90
19000;DHT22;9633;50.980;13.850;2022-12-07T10:10:29;5.10;99.90